UGTB Airport Information

Runway Information
Runway 13L Length 8202 ft width 196 ft
Elevation 1621 ft Threshold 0 ft Heading 133
Runway 31R Length 8202 ft Width 196 ft
Elevation 1572 ft Threshold 0 ft Heading 313
Runway 13R Length 9843 ft width 147 ft
Elevation 1624 ft Threshold 0 ft Heading 136
Runway 31L Length 9843 ft Width 147 ft
Elevation 1558 ft Threshold 0 ft Heading 316
Airport Frequencies
Type APP Name APP Frequency 127.2 MHZ
Type ATIS Name ATIS Frequency 132.8 MHZ
Type GND Name GND Frequency 119 MHZ
Type TWR Name TWR Frequency 128 MHZ
Airport Navaids
Airport Weather Information & NOTAM
ADDS - METARS form results

(2116 UTC 16 February 2020)
Data provider http://aviationweather.gov/metar/data/
 
METAR text: UGTB 162100Z 05004KT CAVOK M00/M10 Q1033 NOSIG
Conditions at: UGTB (TBILISI/NOVO-AL , GE) observed 2100 UTC 16 February 2020
Temperature: 0.0°C (32°F)
Dewpoint: -10.0°C (14°F) [RH = 47%]
Pressure (altimeter): 30.50 inches Hg (1033.0 mb)
Winds: from the NE (50 degrees) at 5 MPH (4 knots; 2.1 m/s)
Visibility: 6 or more miles (10+ km)
Ceiling: ceiling and visibility are OK
Clouds: unknown
Weather: no significant weather observed at this time

METAR text: UGTB 162030Z 06005KT CAVOK 00/M11 Q1033 NOSIG
Conditions at: UGTB (TBILISI/NOVO-AL , GE) observed 2030 UTC 16 February 2020
Temperature: 0.0°C (32°F)
Dewpoint: -11.0°C (12°F) [RH = 43%]
Pressure (altimeter): 30.50 inches Hg (1033.0 mb)
Winds: from the ENE (60 degrees) at 6 MPH (5 knots; 2.6 m/s)
Visibility: 6 or more miles (10+ km)
Ceiling: ceiling and visibility are OK
Clouds: unknown
Weather: no significant weather observed at this time

Forecast for: UGTB (TBILISI/NOVO-AL , GE)
Text: TAF UGTB 161700Z 1618/1718 VRB02KT CAVOK TX06/1712Z TNM02/1703Z
Forecast period: 1800 to 2200 UTC 16 February 2020
Forecast type: FROM: standard forecast or significant change
Winds: variable direction winds at 2 MPH (2 knots; 1.0 m/s)
Visibility: 6 or more miles 10+ km)
Ceiling: unknown
Clouds: missing
Weather: no significant weather forecast for this period
Text: BECMG 1622/1701 BKN060
Forecast period: 2200 UTC 16 February 2020 to 1800 UTC 17 February 2020
Forecast type: BECOMING: Conditions expected to become as follows by 0100 UTC 17 February 2020
Winds: variable direction winds at 2 MPH (2 knots; 1.0 m/s)
Visibility: 6 or more miles 10+ km)
Ceiling: 6000 feet AGL
Clouds: broken clouds at 6000 feet AGL
Weather: no significant weather forecast for this period